الصفحة الرئيسية
METAR-TAF:

METAR-TAF

مطار :

مطار الرباط سلا

الرباط, المغرب

دائرة عرض: 34-03N, خط طول: 006-46W, ارتفاع: 84 متر

مراقبة الطقس الحالي

تاريخ ووقت الإصدار 41 دقيقة قبل الساعة 11:30UTC
ريح 4 عقدة من الشرق/الشمال الشرقي, الاتجاه يتراوح بين الشمال الشرقي و الشرق
درجة الحرارة 19°درجة مئوية
الرطوبة 68%
ضغط 1027 hPa
الرؤية: 7000 متر
غيوم متفرقة على ارتفاع 2000 قدم

METAR: GMME 261130Z 07004KT 040V100 7000 SCT020 19/13 Q1027 NOSIG

زمن: 13:11 (12:11 UTC)

توقعات

تاريخ ووقت الإصدار 1ساعة و 11 دقيقة قبل الساعة 11:00UTC
التوقعات صالحة من26 الساعة 12 UTC إلى 27 الساعة 18 UTC
ريح 2 عقدةمن اتجاهات متغيرة
الرؤية: 7000 متر
غيوم متفرقة على ارتفاع 2000 قدم
مؤقت
من 26 الساعة 20 UTC إلى 27 الساعة 09 UTC
الرؤية: 3000 متر
غيوم مفككة على ارتفاع 800 قدم
غشاء
نظرية الاحتمالات 40% :
مؤقت
من 27 الساعة 02 UTC إلى 27 الساعة 08 UTC
الرؤية: 0600 متر
ضباب

TAF: GMME 261100Z 2612/2718 VRB02KT 7000 SCT020 TEMPO 2620/2709 3000 BR BKN008 PROB40 TEMPO 2702/2708 0600 FG

أرصاد الطقس والتوقعات من أكثر من 4000 مطار (تقارير الطقس للمطار METAR والتنبؤ بالطقس بالمطارTAF).

المحطات المتاحة هي النقط الصفراء والحمراء على الخريطة.

حرك المؤشر فوق النقطة لمعرفة اسم المحطة.

ثم انقر لمعرفة أرصاد وتوقعات الطقس.

لتغيير الخارطة: اضغط على الأزرار الخضراء مع رمز الصليب الأسود للتكبير. على الزر الأخضر مع شرطة للتصغير، أو على الأسهم الخضراء للخرائط المجاورة.


METAR-TAF: